createdAt,value
2023-03-03T00:02:05.231Z,2.40
2023-03-03T00:04:35.015Z,2.30
2023-03-03T00:07:04.764Z,2.30
2023-03-03T00:09:34.466Z,2.30
2023-03-03T00:12:17.927Z,2.30
2023-03-03T00:14:47.752Z,2.30
2023-03-03T00:17:24.848Z,2.30
2023-03-03T00:19:55.189Z,2.30
2023-03-03T00:22:32.267Z,2.30
2023-03-03T00:25:04.045Z,2.30
2023-03-03T00:27:38.376Z,2.20
2023-03-03T00:30:22.683Z,2.20
2023-03-03T00:32:55.750Z,2.20
2023-03-03T00:35:30.118Z,2.30
2023-03-03T00:38:02.127Z,2.30
2023-03-03T00:40:38.627Z,2.20
2023-03-03T00:43:20.776Z,2.20
2023-03-03T00:45:52.426Z,2.20
2023-03-03T00:48:30.464Z,2.00
2023-03-03T00:51:02.004Z,2.00
2023-03-03T00:53:33.266Z,2.00
2023-03-03T00:56:03.196Z,1.90
2023-03-03T00:58:32.927Z,1.90
2023-03-03T01:01:02.707Z,1.90
2023-03-03T01:03:35.196Z,1.90
2023-03-03T01:06:04.927Z,1.80
2023-03-03T01:08:34.742Z,1.90
2023-03-03T01:11:10.132Z,1.90
2023-03-03T01:13:42.514Z,1.90
2023-03-03T01:16:12.405Z,1.80
2023-03-03T01:18:44.782Z,1.80
2023-03-03T01:21:15.315Z,1.80
2023-03-03T01:23:45.057Z,1.80
2023-03-03T01:26:14.934Z,1.80
2023-03-03T01:28:44.754Z,1.70
2023-03-03T01:31:15.104Z,1.70
2023-03-03T01:33:47.500Z,1.60
2023-03-03T01:36:17.326Z,1.60
2023-03-03T01:38:47.073Z,1.50
2023-03-03T01:41:16.911Z,1.50
2023-03-03T01:43:48.198Z,1.50
2023-03-03T01:46:39.997Z,1.50
2023-03-03T01:49:16.741Z,1.50
2023-03-03T01:51:52.174Z,1.50
2023-03-03T01:54:28.046Z,1.50
2023-03-03T01:57:02.137Z,1.40
2023-03-03T01:59:36.975Z,1.40
2023-03-03T02:02:06.940Z,1.40
2023-03-03T02:04:39.780Z,1.40
2023-03-03T02:07:11.768Z,1.40
2023-03-03T02:09:50.619Z,1.40
2023-03-03T02:12:22.710Z,1.40
2023-03-03T02:14:52.487Z,1.40
2023-03-03T02:17:22.267Z,1.30
2023-03-03T02:20:05.723Z,1.30
2023-03-03T02:22:41.317Z,1.30
2023-03-03T02:25:17.012Z,1.30
2023-03-03T02:27:49.661Z,1.30
2023-03-03T02:30:22.549Z,1.30
2023-03-03T02:32:52.310Z,1.30
2023-03-03T02:35:33.884Z,1.30
2023-03-03T02:38:12.363Z,1.30
2023-03-03T02:40:47.417Z,1.30
2023-03-03T02:43:22.713Z,1.30
2023-03-03T02:45:52.540Z,1.30
2023-03-03T02:48:22.332Z,1.20
2023-03-03T02:50:52.044Z,1.10
2023-03-03T02:53:21.815Z,1.20
2023-03-03T02:55:51.560Z,1.10
2023-03-03T02:58:23.919Z,1.10
2023-03-03T03:00:55.619Z,1.20
2023-03-03T03:03:25.751Z,1.10
2023-03-03T03:05:55.510Z,1.10
2023-03-03T03:08:25.288Z,1.10
2023-03-03T03:10:56.900Z,1.00
2023-03-03T03:13:30.410Z,1.00
2023-03-03T03:16:00.159Z,1.00
2023-03-03T03:18:30.535Z,1.00
2023-03-03T03:21:00.303Z,0.90
2023-03-03T03:23:30.761Z,0.80
2023-03-03T03:26:00.499Z,0.80
2023-03-03T03:28:33.121Z,0.70
2023-03-03T03:31:03.134Z,0.60
2023-03-03T03:33:33.000Z,0.60
2023-03-03T03:36:03.701Z,0.60
2023-03-03T03:38:34.210Z,0.60
2023-03-03T03:41:03.977Z,0.60
2023-03-03T03:43:36.354Z,0.50
2023-03-03T03:46:06.374Z,0.50
2023-03-03T03:48:36.390Z,0.50
2023-03-03T03:51:06.491Z,0.50
2023-03-03T03:53:36.298Z,0.50
2023-03-03T03:56:06.088Z,0.50
2023-03-03T03:58:38.444Z,0.60
2023-03-03T04:01:10.032Z,0.60
2023-03-03T04:03:39.764Z,0.70
2023-03-03T04:06:09.608Z,0.60
2023-03-03T04:08:39.312Z,0.70
2023-03-03T04:11:09.094Z,0.70
2023-03-03T04:13:41.404Z,0.70
2023-03-03T04:16:11.445Z,0.80
2023-03-03T04:18:41.239Z,0.80
2023-03-03T04:21:15.101Z,0.80
2023-03-03T04:23:44.941Z,0.90
2023-03-03T04:26:14.745Z,1.00
2023-03-03T04:28:47.269Z,1.00
2023-03-03T04:31:17.095Z,1.10
2023-03-03T04:33:46.904Z,1.10
2023-03-03T04:36:16.706Z,1.20
2023-03-03T04:38:46.486Z,1.20
2023-03-03T04:41:16.266Z,1.30
2023-03-03T04:43:48.598Z,1.30
2023-03-03T04:46:18.462Z,1.20
2023-03-03T04:48:48.305Z,1.20
2023-03-03T04:51:18.701Z,1.20
2023-03-03T04:53:48.471Z,1.20
2023-03-03T04:56:18.702Z,1.10
2023-03-03T04:58:51.032Z,1.20
2023-03-03T05:01:20.947Z,1.10
2023-03-03T05:03:51.051Z,1.10
2023-03-03T05:06:21.564Z,1.10
2023-03-03T05:08:51.303Z,1.10
2023-03-03T05:11:21.181Z,1.10
2023-03-03T05:13:53.557Z,1.20
2023-03-03T05:16:23.438Z,1.20
2023-03-03T05:18:53.325Z,1.20
2023-03-03T05:21:23.153Z,1.30
2023-03-03T05:23:53.006Z,1.30
2023-03-03T05:26:22.969Z,1.30
2023-03-03T05:28:55.422Z,1.30
2023-03-03T05:31:27.200Z,1.40
2023-03-03T05:33:57.492Z,1.30
2023-03-03T05:36:27.868Z,1.40
2023-03-03T05:38:57.654Z,1.40
2023-03-03T05:41:27.594Z,1.40
2023-03-03T05:44:00.007Z,1.40
2023-03-03T05:46:29.854Z,1.40
2023-03-03T05:48:59.665Z,1.30
2023-03-03T05:51:29.528Z,1.30
2023-03-03T05:53:59.398Z,1.30
2023-03-03T05:56:29.258Z,1.40
2023-03-03T05:59:01.587Z,1.40
2023-03-03T06:01:31.412Z,1.40
2023-03-03T06:04:01.223Z,1.40
2023-03-03T06:06:31.035Z,1.40
2023-03-03T06:09:00.822Z,1.40
2023-03-03T06:11:30.670Z,1.40
2023-03-03T06:14:03.040Z,1.40
2023-03-03T06:16:32.906Z,1.40
2023-03-03T06:19:02.638Z,1.40
2023-03-03T06:21:32.454Z,1.30
2023-03-03T06:24:02.308Z,1.40
2023-03-03T06:26:32.080Z,1.40
2023-03-03T06:29:04.551Z,1.40
2023-03-03T06:31:34.322Z,1.40
2023-03-03T06:34:04.105Z,1.30
2023-03-03T06:36:33.984Z,1.40
2023-03-03T06:39:04.203Z,1.40
2023-03-03T06:41:34.210Z,1.40
2023-03-03T06:44:06.901Z,1.50
2023-03-03T06:46:36.814Z,1.50
2023-03-03T06:49:06.627Z,1.50
2023-03-03T06:51:39.762Z,1.50
2023-03-03T06:54:15.261Z,1.50
2023-03-03T06:56:46.828Z,1.50
2023-03-03T06:59:20.665Z,1.50
2023-03-03T07:01:51.925Z,1.50
2023-03-03T07:04:31.113Z,1.60
2023-03-03T07:07:02.846Z,1.60
2023-03-03T07:09:33.024Z,1.60
2023-03-03T07:12:09.656Z,1.60
2023-03-03T07:14:46.178Z,1.60
2023-03-03T07:17:19.663Z,1.60
2023-03-03T07:19:50.319Z,1.70
2023-03-03T07:22:22.140Z,1.80
2023-03-03T07:24:53.758Z,1.80
2023-03-03T07:27:27.902Z,1.90
2023-03-03T07:30:23.541Z,2.00
2023-03-03T07:32:57.514Z,2.00
2023-03-03T07:35:39.309Z,2.10
2023-03-03T07:38:29.108Z,2.10
2023-03-03T07:41:01.104Z,2.30
2023-03-03T07:43:38.054Z,2.30
2023-03-03T07:46:30.631Z,2.20
2023-03-03T07:49:01.762Z,2.40
2023-03-03T07:51:41.819Z,2.50
2023-03-03T07:54:31.971Z,2.50
2023-03-03T07:57:16.883Z,2.50
2023-03-03T07:59:49.801Z,2.40
2023-03-03T08:02:39.740Z,2.40
2023-03-03T08:05:32.450Z,2.70
2023-03-03T08:08:17.920Z,2.50
2023-03-03T08:10:50.909Z,2.50
2023-03-03T08:13:22.878Z,2.60
2023-03-03T08:15:54.799Z,2.70
2023-03-03T08:18:33.068Z,2.80
2023-03-03T08:21:04.047Z,2.90
2023-03-03T08:23:33.813Z,2.80
2023-03-03T08:26:03.693Z,2.70
2023-03-03T08:28:33.495Z,2.70
2023-03-03T08:31:16.689Z,2.90
2023-03-03T08:33:52.520Z,3.00
2023-03-03T08:36:22.546Z,3.20
2023-03-03T08:38:52.351Z,3.40
2023-03-03T08:41:22.119Z,3.10
2023-03-03T08:43:51.983Z,2.90
2023-03-03T08:46:21.773Z,3.30
2023-03-03T08:48:54.207Z,3.50
2023-03-03T08:51:24.870Z,3.60
2023-03-03T08:53:54.875Z,3.70
2023-03-03T08:56:24.629Z,3.60
2023-03-03T08:59:02.149Z,3.60
2023-03-03T09:01:32.825Z,3.70
2023-03-03T09:04:05.462Z,3.70
2023-03-03T09:06:35.308Z,3.80
2023-03-03T09:09:05.756Z,4.00
2023-03-03T09:11:36.300Z,4.00
2023-03-03T09:14:14.192Z,3.70
2023-03-03T09:16:51.024Z,3.90
2023-03-03T09:19:30.752Z,4.00
2023-03-03T09:22:06.001Z,4.10
2023-03-03T09:24:39.357Z,4.10
2023-03-03T09:27:18.138Z,4.00
2023-03-03T09:29:47.878Z,4.00
2023-03-03T09:32:32.936Z,3.80
2023-03-03T09:35:40.507Z,3.90
2023-03-03T09:38:25.946Z,4.00
2023-03-03T09:41:28.501Z,4.20
2023-03-03T09:44:17.291Z,4.30
2023-03-03T09:47:01.217Z,4.50
2023-03-03T09:49:35.670Z,4.60
2023-03-03T09:52:36.162Z,4.80
2023-03-03T09:55:25.280Z,4.50
2023-03-03T09:58:10.935Z,4.50
2023-03-03T10:00:57.744Z,4.90
2023-03-03T10:04:00.635Z,5.00
2023-03-03T10:06:36.551Z,5.20
2023-03-03T10:09:34.210Z,5.30
2023-03-03T10:12:09.779Z,5.40
2023-03-03T10:14:54.075Z,5.40
2023-03-03T10:17:37.839Z,5.40
2023-03-03T10:20:49.130Z,5.50
2023-03-03T10:23:32.315Z,5.90
2023-03-03T10:26:19.855Z,5.80
2023-03-03T10:29:09.191Z,5.50
2023-03-03T10:31:48.564Z,5.50
2023-03-03T10:34:39.402Z,6.10
2023-03-03T10:37:14.298Z,6.20
2023-03-03T10:40:05.383Z,6.10
2023-03-03T10:42:57.707Z,6.40
2023-03-03T10:45:53.304Z,6.30
2023-03-03T10:48:46.844Z,6.50
2023-03-03T10:51:29.094Z,6.50
2023-03-03T10:54:12.418Z,6.50
2023-03-03T10:56:53.858Z,6.10
2023-03-03T10:59:43.292Z,6.30
2023-03-03T11:02:22.401Z,6.50
2023-03-03T11:05:05.426Z,6.50
2023-03-03T11:07:41.884Z,6.40
2023-03-03T11:10:27.326Z,6.30
2023-03-03T11:13:10.901Z,6.50
2023-03-03T11:15:57.351Z,6.90
2023-03-03T11:18:41.867Z,6.90
2023-03-03T11:21:19.849Z,7.20
2023-03-03T11:24:02.908Z,7.40
2023-03-03T11:26:48.017Z,7.30
2023-03-03T11:29:34.626Z,7.20
2023-03-03T11:32:23.308Z,7.20
2023-03-03T11:35:07.842Z,7.00
2023-03-03T11:37:43.361Z,7.30
2023-03-03T11:40:19.681Z,7.40
2023-03-03T11:42:57.837Z,7.40
2023-03-03T11:45:33.993Z,7.50
2023-03-03T11:48:14.203Z,7.80
2023-03-03T11:50:50.232Z,7.60
2023-03-03T11:53:31.934Z,7.60
2023-03-03T11:56:09.694Z,7.80
2023-03-03T11:58:45.252Z,7.60
2023-03-03T12:01:23.493Z,7.50
2023-03-03T12:04:01.240Z,7.80
2023-03-03T12:06:41.876Z,7.90
2023-03-03T12:09:32.356Z,7.80
2023-03-03T12:12:09.874Z,7.70
2023-03-03T12:15:00.522Z,8.00
2023-03-03T12:17:58.900Z,8.20
2023-03-03T12:20:36.947Z,8.00
2023-03-03T12:26:13.752Z,8.10
2023-03-03T12:28:49.697Z,7.80
2023-03-03T12:31:42.082Z,7.90
2023-03-03T12:34:20.388Z,8.00
2023-03-03T12:37:05.698Z,7.80
2023-03-03T12:39:48.031Z,7.60
2023-03-03T12:42:27.548Z,7.70
2023-03-03T12:45:07.961Z,7.90
2023-03-03T12:47:43.075Z,8.00
2023-03-03T12:50:33.043Z,8.10
2023-03-03T12:53:16.892Z,8.00
2023-03-03T12:55:54.704Z,8.40
2023-03-03T12:58:39.544Z,8.30
2023-03-03T13:01:17.768Z,8.10
2023-03-03T13:04:00.305Z,8.20
2023-03-03T13:06:33.709Z,8.10
2023-03-03T13:09:22.433Z,8.50
2023-03-03T13:12:05.748Z,8.70
2023-03-03T13:14:44.263Z,8.70
2023-03-03T13:17:23.912Z,9.00
2023-03-03T13:20:00.196Z,9.20
2023-03-03T13:22:44.596Z,8.90
2023-03-03T13:25:34.282Z,8.80
2023-03-03T13:28:09.770Z,8.80
2023-03-03T13:30:44.976Z,8.60
2023-03-03T13:33:23.273Z,8.80
2023-03-03T13:35:56.640Z,8.80
2023-03-03T13:38:31.236Z,8.70
2023-03-03T13:41:08.404Z,8.80
2023-03-03T13:43:46.004Z,8.70
2023-03-03T13:46:23.972Z,8.70
2023-03-03T13:49:11.189Z,8.80
2023-03-03T13:51:48.319Z,8.70
2023-03-03T13:54:45.305Z,9.00
2023-03-03T13:57:34.496Z,8.90
2023-03-03T14:00:16.089Z,9.00
2023-03-03T14:03:15.519Z,9.10
2023-03-03T14:05:48.588Z,9.10
2023-03-03T14:08:28.715Z,9.20
2023-03-03T14:11:11.784Z,9.20
2023-03-03T14:13:52.587Z,9.20
2023-03-03T14:16:32.169Z,9.00
2023-03-03T14:19:13.563Z,9.30
2023-03-03T14:21:51.848Z,9.30
2023-03-03T14:24:25.253Z,9.10
2023-03-03T14:26:58.296Z,9.00
2023-03-03T14:29:35.830Z,9.10
2023-03-03T14:32:30.421Z,9.20
2023-03-03T14:35:21.482Z,9.10
2023-03-03T14:37:53.499Z,9.20
2023-03-03T14:40:25.407Z,9.20
2023-03-03T14:42:58.959Z,9.30
2023-03-03T14:45:37.547Z,9.20
2023-03-03T14:48:18.942Z,9.30
2023-03-03T14:50:53.711Z,9.20
2023-03-03T14:53:32.972Z,9.30
2023-03-03T14:56:22.076Z,9.30
2023-03-03T14:58:52.665Z,9.40
2023-03-03T15:01:35.482Z,9.40
2023-03-03T15:04:07.389Z,9.30
2023-03-03T15:06:40.253Z,9.30
2023-03-03T15:09:30.597Z,9.40
2023-03-03T15:12:02.225Z,9.40
2023-03-03T15:14:35.515Z,9.50
2023-03-03T15:17:32.266Z,9.40
2023-03-03T15:20:34.979Z,9.30
2023-03-03T15:23:38.712Z,9.20
2023-03-03T15:26:14.538Z,9.20
2023-03-03T15:28:55.329Z,9.30
2023-03-03T15:31:39.837Z,9.20
2023-03-03T15:34:29.389Z,9.20
2023-03-03T15:37:05.086Z,9.10
2023-03-03T15:39:48.355Z,9.10
2023-03-03T15:42:24.248Z,9.00
2023-03-03T15:45:01.830Z,9.00
2023-03-03T15:47:50.690Z,9.00
2023-03-03T15:50:35.106Z,9.00
2023-03-03T15:53:15.638Z,9.00
2023-03-03T15:55:56.316Z,9.10
2023-03-03T15:58:52.848Z,9.00
2023-03-03T16:01:29.757Z,9.00
2023-03-03T16:04:03.471Z,9.00
2023-03-03T16:06:47.904Z,9.00
2023-03-03T16:09:33.434Z,8.90
2023-03-03T16:12:11.609Z,8.90
2023-03-03T16:15:07.765Z,8.80
2023-03-03T16:17:48.391Z,8.80
2023-03-03T16:20:25.472Z,8.70
2023-03-03T16:23:16.873Z,8.70
2023-03-03T16:26:01.951Z,8.70
2023-03-03T16:28:46.509Z,8.60
2023-03-03T16:31:22.472Z,8.50
2023-03-03T16:34:03.889Z,8.50
2023-03-03T16:36:47.041Z,8.40
2023-03-03T16:39:26.209Z,8.40
2023-03-03T16:42:03.288Z,8.40
2023-03-03T16:44:42.310Z,8.30
2023-03-03T16:47:30.703Z,8.20
2023-03-03T16:50:13.072Z,8.10
2023-03-03T16:52:47.771Z,7.90
2023-03-03T16:55:24.194Z,7.90
2023-03-03T16:58:05.153Z,7.90
2023-03-03T17:00:43.320Z,7.80
2023-03-03T17:03:35.388Z,7.70
2023-03-03T17:06:14.078Z,7.70
2023-03-03T17:09:04.426Z,7.80
2023-03-03T17:11:47.416Z,7.70
2023-03-03T17:14:31.487Z,7.50
2023-03-03T17:17:12.209Z,7.50
2023-03-03T17:20:06.147Z,7.30
2023-03-03T17:22:47.937Z,7.30
2023-03-03T17:25:24.885Z,7.30
2023-03-03T17:28:22.695Z,7.10
2023-03-03T17:31:01.642Z,7.00
2023-03-03T17:33:45.854Z,7.10
2023-03-03T17:36:35.486Z,7.00
2023-03-03T17:39:19.766Z,7.00
2023-03-03T17:41:56.562Z,7.00
2023-03-03T17:44:40.455Z,6.90
2023-03-03T17:47:13.570Z,6.90
2023-03-03T17:50:05.113Z,6.80
2023-03-03T17:52:55.904Z,6.80
2023-03-03T17:55:58.187Z,6.70
2023-03-03T17:58:59.638Z,6.60
2023-03-03T18:01:46.803Z,6.60
2023-03-03T18:04:52.825Z,6.60
2023-03-03T18:07:40.066Z,6.50
2023-03-03T18:10:34.716Z,6.30
2023-03-03T18:13:16.371Z,6.00
2023-03-03T18:16:11.116Z,5.90
2023-03-03T18:19:10.153Z,5.80
2023-03-03T18:21:51.869Z,5.80
2023-03-03T18:24:37.656Z,5.70
2023-03-03T18:27:32.733Z,5.90
2023-03-03T18:30:35.632Z,6.30
2023-03-03T18:33:14.090Z,6.50
2023-03-03T18:35:49.445Z,6.20
2023-03-03T18:38:39.018Z,6.30
2023-03-03T18:41:13.030Z,6.10
2023-03-03T18:44:02.252Z,5.90
2023-03-03T18:47:01.983Z,5.90
2023-03-03T18:49:55.789Z,5.90
2023-03-03T18:52:30.573Z,5.90
2023-03-03T18:55:25.260Z,5.80
2023-03-03T18:58:20.379Z,5.90
2023-03-03T19:00:53.440Z,5.80
2023-03-03T19:03:30.066Z,5.70
2023-03-03T19:06:01.535Z,5.70
2023-03-03T19:08:51.316Z,5.60
2023-03-03T19:11:38.987Z,5.50
2023-03-03T19:14:35.039Z,5.50
2023-03-03T19:17:34.713Z,5.50
2023-03-03T19:20:08.174Z,5.40
2023-03-03T19:22:48.314Z,5.40
2023-03-03T19:25:27.342Z,5.30
2023-03-03T19:28:11.770Z,5.20
2023-03-03T19:30:58.868Z,5.10
2023-03-03T19:33:40.710Z,5.10
2023-03-03T19:36:40.539Z,5.10
2023-03-03T19:39:26.190Z,5.10
2023-03-03T19:42:08.380Z,5.00
2023-03-03T19:44:51.568Z,5.00
2023-03-03T19:47:31.280Z,5.00
2023-03-03T19:50:11.491Z,4.80
2023-03-03T19:52:46.564Z,4.80
2023-03-03T19:55:26.016Z,4.80
2023-03-03T19:58:19.270Z,4.80
2023-03-03T20:00:52.295Z,4.80
2023-03-03T20:03:56.752Z,4.70
2023-03-03T20:06:40.299Z,4.70
2023-03-03T20:09:22.419Z,4.60
2023-03-03T20:12:09.592Z,4.70
2023-03-03T20:14:49.263Z,4.70
2023-03-03T20:17:45.380Z,4.60
2023-03-03T20:20:43.826Z,4.60
2023-03-03T20:23:23.522Z,4.50
2023-03-03T20:25:57.911Z,4.40
2023-03-03T20:28:57.748Z,4.40
2023-03-03T20:31:35.725Z,4.40
2023-03-03T20:34:13.893Z,4.40
2023-03-03T20:36:54.954Z,4.50
2023-03-03T20:39:37.934Z,4.30
2023-03-03T20:42:15.031Z,4.30
2023-03-03T20:44:59.500Z,4.30
2023-03-03T20:47:41.195Z,4.20
2023-03-03T20:50:18.912Z,4.20
2023-03-03T20:53:02.200Z,4.20
2023-03-03T20:55:44.547Z,4.10
2023-03-03T20:58:22.539Z,4.10
2023-03-03T21:00:58.054Z,4.10
2023-03-03T21:03:37.453Z,4.10
2023-03-03T21:06:15.095Z,4.00
2023-03-03T21:08:48.425Z,3.90
2023-03-03T21:11:20.704Z,3.80
2023-03-03T21:13:52.115Z,3.90
2023-03-03T21:16:35.789Z,3.90
2023-03-03T21:19:10.266Z,3.90
2023-03-03T21:21:41.413Z,3.90
2023-03-03T21:24:19.555Z,3.80
2023-03-03T21:26:59.683Z,3.70
2023-03-03T21:29:31.403Z,3.70
2023-03-03T21:32:02.759Z,3.70
2023-03-03T21:34:36.861Z,3.70
2023-03-03T21:37:08.329Z,3.60
2023-03-03T21:39:40.092Z,3.60
2023-03-03T21:42:12.377Z,3.60
2023-03-03T21:44:44.943Z,3.50
2023-03-03T21:47:17.019Z,3.60
2023-03-03T21:49:51.158Z,3.60
2023-03-03T21:52:23.482Z,3.50
2023-03-03T21:54:54.731Z,3.50
2023-03-03T21:57:25.109Z,3.50
2023-03-03T21:59:56.017Z,3.50
2023-03-03T22:02:26.015Z,3.40
2023-03-03T22:04:58.399Z,3.40
2023-03-03T22:07:28.395Z,3.40
2023-03-03T22:09:58.244Z,3.30
2023-03-03T22:12:27.976Z,3.20
2023-03-03T22:14:57.744Z,3.20
2023-03-03T22:17:28.157Z,3.20
2023-03-03T22:20:00.464Z,3.30
2023-03-03T22:22:30.231Z,3.20
2023-03-03T22:24:59.942Z,3.20
2023-03-03T22:27:29.752Z,3.20
2023-03-03T22:29:59.494Z,3.20
2023-03-03T22:32:29.796Z,3.20
2023-03-03T22:35:02.210Z,3.10
2023-03-03T22:37:32.026Z,3.10
2023-03-03T22:40:01.826Z,3.00
2023-03-03T22:42:31.623Z,3.00
2023-03-03T22:45:01.372Z,2.90
2023-03-03T22:47:32.682Z,2.80
2023-03-03T22:50:05.127Z,2.80
2023-03-03T22:52:34.892Z,2.80
2023-03-03T22:55:04.678Z,2.80
2023-03-03T22:57:34.433Z,2.70
2023-03-03T23:00:06.367Z,2.60
2023-03-03T23:02:36.156Z,2.60
2023-03-03T23:05:11.104Z,2.60
2023-03-03T23:07:42.269Z,2.60
2023-03-03T23:10:13.643Z,2.60
2023-03-03T23:12:43.575Z,2.50
2023-03-03T23:15:15.799Z,2.50
2023-03-03T23:17:46.990Z,2.50
2023-03-03T23:20:22.251Z,2.50
2023-03-03T23:22:52.106Z,2.40
2023-03-03T23:25:23.015Z,2.40
2023-03-03T23:27:53.631Z,2.50
2023-03-03T23:30:24.818Z,2.40
2023-03-03T23:32:54.959Z,2.30
2023-03-03T23:35:27.394Z,2.30
2023-03-03T23:37:57.175Z,2.30
2023-03-03T23:40:27.275Z,2.20
2023-03-03T23:42:57.024Z,2.10
2023-03-03T23:45:26.881Z,2.10
2023-03-03T23:47:56.873Z,2.10
2023-03-03T23:50:29.263Z,2.10
2023-03-03T23:52:58.996Z,2.00
2023-03-03T23:55:28.740Z,2.00
2023-03-03T23:57:58.530Z,2.00
